METAR Data
IDs: Format: Raw Decoded Include TAF

Data at: 1331 UTC 24 May 2019

TJSJ 241256Z 12010KT 10SM SCT048 SCT080 27/22 A2998 RMK AO2 SLP150 VCSH E-SE T02720217